Time;durP1;ratioP1;P1;durP2;ratioP2;P2;SDS_P1;SDS_P2;PMS_P1;PMS_P2;Temp;Humidity;BMP_temperature;BMP_pressure;BME280_temperature;BME280_humidity;BME280_pressure;Samples;Min_cycle;Max_cycle;Signal;HPM_P1;HPM_P2
2021/04/17 00:01:51;;;;;;;10.30;4.10;;;8.60;70.40;;;;;;5012638;28;20418;-80
2021/04/17 00:04:17;;;;;;;5.83;3.57;;;8.60;70.60;;;;;;5014164;28;20070;-80
2021/04/17 00:06:43;;;;;;;8.27;4.23;;;8.60;70.60;;;;;;5013628;28;20367;-79
2021/04/17 00:09:12;;;;;;;7.67;3.50;;;8.50;70.40;;;;;;5013289;28;20040;-80
2021/04/17 00:11:39;;;;;;;6.70;3.70;;;8.50;70.40;;;;;;5012634;28;20036;-80
2021/04/17 00:14:09;;;;;;;8.17;4.03;;;8.50;70.70;;;;;;5013780;28;20034;-80
2021/04/17 00:16:36;;;;;;;10.17;3.60;;;8.50;71.50;;;;;;5012914;28;20090;-79
2021/04/17 00:19:01;;;;;;;8.17;4.07;;;8.50;70.80;;;;;;5013615;28;20017;-80
2021/04/17 00:21:27;;;;;;;7.60;3.70;;;8.50;70.60;;;;;;5013335;28;20037;-80
2021/04/17 00:23:54;;;;;;;8.87;3.80;;;8.50;70.70;;;;;;5011818;28;20061;-78
2021/04/17 00:26:20;;;;;;;7.23;4.03;;;8.50;71.70;;;;;;5012801;28;20125;-79
2021/04/17 00:28:45;;;;;;;7.97;3.53;;;8.40;71.20;;;;;;5013241;28;20026;-78
2021/04/17 00:31:11;;;;;;;6.40;3.43;;;8.50;71.60;;;;;;5028177;28;20064;-79
2021/04/17 00:33:37;;;;;;;10.03;4.50;;;8.40;71.60;;;;;;5013163;28;20034;-80
2021/04/17 00:36:03;;;;;;;7.27;3.90;;;8.40;71.40;;;;;;5013198;28;20135;-80
2021/04/17 00:38:29;;;;;;;7.40;3.80;;;8.50;71.70;;;;;;5013376;28;20034;-80
2021/04/17 00:40:56;;;;;;;6.77;3.23;;;8.40;71.50;;;;;;5010830;28;20022;-80
2021/04/17 00:43:22;;;;;;;8.73;3.73;;;8.40;71.80;;;;;;5011867;28;20045;-79
2021/04/17 00:45:48;;;;;;;7.00;3.93;;;8.40;71.90;;;;;;5013484;28;20030;-79
2021/04/17 00:48:14;;;;;;;7.63;3.67;;;8.40;72.60;;;;;;5011892;28;20111;-78
2021/04/17 00:50:41;;;;;;;6.63;3.20;;;8.40;72.80;;;;;;5012758;28;20022;-80
2021/04/17 00:53:07;;;;;;;9.50;3.43;;;8.40;71.80;;;;;;5012059;28;20045;-80
2021/04/17 00:55:34;;;;;;;7.40;3.73;;;8.40;72.00;;;;;;5011194;28;20124;-80
2021/04/17 00:58:02;;;;;;;6.80;3.60;;;8.40;71.80;;;;;;5011818;28;20025;-80
2021/04/17 01:00:28;;;;;;;8.53;3.90;;;8.30;72.00;;;;;;5012808;28;20052;-79
2021/04/17 01:03:18;;;;;;;8.87;3.67;;;8.30;72.00;;;;;;5013616;28;20291;-81
2021/04/17 01:05:46;;;;;;;6.50;3.40;;;8.30;72.00;;;;;;4972839;28;20493;-80
2021/04/17 01:08:27;;;;;;;6.13;3.37;;;8.30;72.00;;;;;;5013662;28;20036;-80
2021/04/17 01:10:58;;;;;;;8.30;3.57;;;8.20;72.30;;;;;;5015563;28;20079;-80
2021/04/17 01:13:24;;;;;;;7.10;3.27;;;8.30;72.30;;;;;;5016865;28;20032;-80
2021/04/17 01:15:51;;;;;;;6.83;3.13;;;8.30;73.20;;;;;;5016431;28;20038;-79
2021/04/17 01:18:17;;;;;;;7.30;3.37;;;8.20;72.40;;;;;;5017058;28;20049;-80
2021/04/17 01:20:46;;;;;;;6.43;3.57;;;8.30;72.50;;;;;;5016123;28;20040;-80
2021/04/17 01:23:17;;;;;;;7.83;3.87;;;8.20;72.50;;;;;;5017065;28;20026;-78
2021/04/17 01:25:55;;;;;;;10.93;4.43;;;8.20;72.90;;;;;;5030838;28;20045;-79
2021/04/17 01:28:25;;;;;;;5.37;3.00;;;8.20;72.80;;;;;;5015304;28;20034;-79
2021/04/17 01:30:53;;;;;;;7.60;3.63;;;8.20;72.90;;;;;;5014798;28;20080;-79
2021/04/17 01:33:23;;;;;;;6.97;3.40;;;8.20;73.10;;;;;;5015061;28;20041;-80
2021/04/17 01:35:50;;;;;;;6.70;3.53;;;8.20;73.10;;;;;;5015076;28;20232;-80
2021/04/17 01:38:26;;;;;;;7.60;3.30;;;8.10;73.20;;;;;;5015253;28;20033;-80
2021/04/17 01:40:57;;;;;;;5.27;3.17;;;8.20;73.20;;;;;;5015098;28;20452;-80
2021/04/17 01:43:25;;;;;;;8.07;3.73;;;8.20;73.20;;;;;;5015493;28;20030;-79
2021/04/17 01:45:53;;;;;;;9.27;3.83;;;8.10;73.20;;;;;;5015175;28;20165;-79
2021/04/17 01:48:21;;;;;;;6.33;3.47;;;8.20;73.50;;;;;;5016592;28;20491;-79
2021/04/17 01:50:47;;;;;;;6.90;3.50;;;8.10;73.60;;;;;;5014628;28;20049;-80
2021/04/17 01:53:18;;;;;;;7.60;3.70;;;8.10;73.50;;;;;;5015209;28;20374;-80
2021/04/17 01:55:46;;;;;;;6.47;3.37;;;8.10;73.90;;;;;;5014260;28;20030;-80
2021/04/17 01:58:16;;;;;;;9.70;3.87;;;8.10;73.70;;;;;;5015999;28;20033;-80
2021/04/17 02:00:41;;;;;;;;;;;8.00;73.90;;;;;;5015197;28;20033;-79
2021/04/17 02:03:07;;;;;;;7.37;3.20;;;7.90;74.30;;;;;;5017027;28;19906;-80
2021/04/17 02:05:33;;;;;;;6.03;3.00;;;7.90;74.60;;;;;;5031097;28;20471;-80
2021/04/17 02:07:59;;;;;;;7.73;3.40;;;7.90;74.80;;;;;;5015848;28;20054;-80
2021/04/17 02:10:24;;;;;;;8.77;3.13;;;7.90;74.50;;;;;;5014735;28;20037;-80
2021/04/17 02:12:50;;;;;;;7.07;3.70;;;7.90;74.50;;;;;;5014561;28;20029;-80
2021/04/17 02:15:16;;;;;;;9.53;3.93;;;7.90;75.40;;;;;;5015852;28;20394;-79
2021/04/17 02:18:06;;;;;;;8.27;3.70;;;7.80;75.00;;;;;;5015866;28;20398;-79
2021/04/17 02:20:39;;;;;;;6.17;3.30;;;7.80;75.10;;;;;;5015417;28;20021;-80
2021/04/17 02:23:05;;;;;;;8.13;3.57;;;7.70;75.10;;;;;;5015606;28;20018;-80
2021/04/17 02:25:31;;;;;;;8.10;3.63;;;7.70;75.30;;;;;;5013433;28;20033;-80
2021/04/17 02:27:57;;;;;;;8.37;3.10;;;7.70;75.30;;;;;;5015261;28;20046;-80
2021/04/17 02:30:23;;;;;;;8.20;3.40;;;7.60;75.90;;;;;;5013268;28;20026;-80
2021/04/17 02:32:48;;;;;;;5.80;3.40;;;7.60;75.50;;;;;;5015428;28;20096;-80
2021/04/17 02:35:14;;;;;;;7.50;3.53;;;7.50;76.80;;;;;;5013530;28;20358;-79
2021/04/17 02:37:40;;;;;;;6.80;3.40;;;7.50;76.40;;;;;;5014584;28;20053;-80
2021/04/17 02:40:06;;;;;;;8.17;3.70;;;7.40;76.70;;;;;;5022513;23;20092;-82
2021/04/17 02:42:32;;;;;;;9.80;3.83;;;7.40;77.10;;;;;;4993268;28;20026;-82
2021/04/17 02:44:57;;;;;;;8.53;3.93;;;7.30;76.70;;;;;;4991658;28;20022;-82
2021/04/17 02:47:23;;;;;;;12.40;4.27;;;7.40;77.00;;;;;;4992135;28;20037;-82
2021/04/17 02:49:49;;;;;;;7.53;3.30;;;7.40;77.00;;;;;;4992136;28;20050;-82
2021/04/17 02:52:15;;;;;;;7.33;3.70;;;7.40;76.50;;;;;;4992122;28;20026;-82
2021/04/17 02:54:40;;;;;;;8.37;3.63;;;7.40;76.80;;;;;;4993506;28;20501;-82
2021/04/17 02:57:06;;;;;;;8.87;3.77;;;7.40;76.90;;;;;;4992699;28;20586;-82
2021/04/17 02:59:32;;;;;;;7.57;3.70;;;7.30;76.90;;;;;;4993154;28;20025;-82
2021/04/17 03:01:58;;;;;;;7.70;3.70;;;7.30;77.80;;;;;;4993513;28;20121;-82
2021/04/17 03:04:23;;;;;;;8.17;4.10;;;7.20;77.50;;;;;;4993756;28;20026;-82
2021/04/17 03:06:49;;;;;;;8.20;3.87;;;7.20;77.40;;;;;;4993823;28;20313;-83
2021/04/17 03:09:15;;;;;;;6.87;3.37;;;7.30;77.70;;;;;;4993442;28;20077;-82
2021/04/17 03:11:41;;;;;;;8.37;3.40;;;7.20;77.70;;;;;;4993302;28;20019;-82
2021/04/17 03:14:06;;;;;;;8.67;3.50;;;7.20;78.30;;;;;;4992094;28;20065;-82
2021/04/17 03:16:32;;;;;;;8.37;3.93;;;7.20;78.10;;;;;;4991893;28;20054;-83
2021/04/17 03:18:58;;;;;;;11.03;3.83;;;7.20;78.00;;;;;;4993618;28;20022;-82
2021/04/17 03:21:23;;;;;;;8.97;3.67;;;7.10;78.10;;;;;;4993489;28;20023;-82
2021/04/17 03:23:49;;;;;;;6.67;3.70;;;7.10;78.30;;;;;;4993561;28;20543;-82
2021/04/17 03:26:15;;;;;;;8.97;3.77;;;7.10;78.30;;;;;;4993087;28;20022;-82
2021/04/17 03:28:41;;;;;;;6.93;3.57;;;7.00;78.40;;;;;;4993973;28;20030;-82
2021/04/17 03:31:06;;;;;;;7.07;3.53;;;7.00;78.40;;;;;;4991050;28;20034;-84
2021/04/17 03:33:32;;;;;;;8.00;3.57;;;7.00;78.40;;;;;;4992136;28;20041;-83
2021/04/17 03:35:58;;;;;;;10.33;3.90;;;7.00;78.70;;;;;;4993159;28;20026;-84
2021/04/17 03:38:24;;;;;;;6.80;3.60;;;7.00;78.60;;;;;;4993819;28;20034;-82
2021/04/17 03:40:50;;;;;;;7.00;3.77;;;7.00;78.40;;;;;;4992779;28;20041;-83
2021/04/17 03:43:16;;;;;;;7.50;3.70;;;7.00;78.20;;;;;;4992283;28;20034;-84
2021/04/17 03:45:42;;;;;;;9.63;4.03;;;7.00;78.10;;;;;;4993662;28;20092;-83
2021/04/17 03:48:08;;;;;;;7.93;3.93;;;7.00;78.50;;;;;;4994114;28;20451;-83
2021/04/17 03:50:34;;;;;;;10.63;4.60;;;6.90;78.50;;;;;;4992002;28;20066;-83
2021/04/17 03:52:59;;;;;;;9.63;4.33;;;7.00;78.60;;;;;;4994074;28;20049;-83
2021/04/17 03:55:25;;;;;;;9.47;3.90;;;7.00;78.20;;;;;;4993767;28;20033;-82
2021/04/17 03:57:51;;;;;;;9.30;4.70;;;7.00;78.70;;;;;;4993841;28;20026;-83
2021/04/17 04:00:19;;;;;;;7.70;3.80;;;6.90;78.60;;;;;;4993764;28;20049;-83
2021/04/17 04:02:45;;;;;;;9.10;4.10;;;6.90;78.80;;;;;;4995577;28;20022;-83
2021/04/17 04:05:11;;;;;;;9.13;4.77;;;6.80;79.00;;;;;;4992363;28;20510;-82
2021/04/17 04:07:37;;;;;;;9.53;3.90;;;6.80;79.60;;;;;;4992604;28;20058;-82
2021/04/17 04:10:06;;;;;;;8.47;3.77;;;6.70;79.60;;;;;;4991562;28;20053;-83
2021/04/17 04:12:31;;;;;;;12.63;4.10;;;6.60;79.80;;;;;;4993782;28;20048;-83
2021/04/17 04:14:57;;;;;;;10.93;3.97;;;6.60;79.60;;;;;;4992271;28;20050;-83
2021/04/17 04:17:22;;;;;;;10.50;4.70;;;6.60;79.50;;;;;;4993096;28;20061;-84
2021/04/17 04:19:48;;;;;;;8.23;3.87;;;6.70;79.80;;;;;;4993709;28;20033;-82
2021/04/17 04:22:14;;;;;;;7.27;3.57;;;6.60;79.60;;;;;;4994357;28;20022;-83
2021/04/17 04:24:39;;;;;;;13.47;3.97;;;6.60;79.90;;;;;;4993879;28;20030;-83
2021/04/17 04:27:06;;;;;;;8.87;3.63;;;6.60;79.80;;;;;;4992607;28;20093;-84
2021/04/17 04:29:32;;;;;;;10.60;3.93;;;6.60;79.70;;;;;;4994738;28;20023;-83
2021/04/17 04:31:57;;;;;;;8.40;4.00;;;6.60;79.80;;;;;;4994822;28;20049;-83
2021/04/17 04:34:23;;;;;;;10.97;4.07;;;6.60;79.50;;;;;;4995464;28;20042;-84
2021/04/17 04:36:49;;;;;;;9.37;3.93;;;6.50;80.10;;;;;;4995168;28;20038;-83
2021/04/17 04:39:14;;;;;;;10.07;3.70;;;6.50;80.10;;;;;;4994770;28;20030;-84
2021/04/17 04:41:40;;;;;;;8.07;3.70;;;6.50;80.20;;;;;;4995308;28;20026;-83
2021/04/17 04:44:06;;;;;;;11.33;3.70;;;6.50;79.90;;;;;;4999199;28;20367;-83
2021/04/17 04:46:32;;;;;;;7.60;3.70;;;6.50;79.90;;;;;;4999481;28;20030;-85
2021/04/17 04:48:58;;;;;;;9.87;3.63;;;6.40;80.20;;;;;;5001344;28;20035;-86
2021/04/17 04:51:23;;;;;;;9.00;3.87;;;6.40;80.30;;;;;;5000098;28;20053;-82
2021/04/17 04:53:49;;;;;;;8.53;3.60;;;6.50;80.10;;;;;;4998750;28;20076;-84
2021/04/17 04:56:15;;;;;;;10.27;3.77;;;6.50;80.00;;;;;;4993620;28;20030;-86
2021/04/17 04:58:41;;;;;;;7.53;3.60;;;6.50;79.90;;;;;;4995793;28;20045;-82
2021/04/17 05:01:06;;;;;;;10.50;4.23;;;6.50;79.90;;;;;;4994198;28;20037;-87
2021/04/17 05:03:32;;;;;;;8.70;3.80;;;6.50;79.60;;;;;;4994612;28;20033;-86
2021/04/17 05:05:59;;;;;;;8.93;3.90;;;6.60;79.50;;;;;;4995663;28;20026;-86
2021/04/17 05:08:24;;;;;;;9.97;4.67;;;6.50;79.90;;;;;;5014551;28;20108;-85
2021/04/17 05:10:50;;;;;;;8.43;4.20;;;6.50;79.70;;;;;;5011826;28;20128;-85
2021/04/17 05:13:16;;;;;;;8.40;3.63;;;6.50;80.30;;;;;;5014249;28;20113;-85
2021/04/17 05:15:41;;;;;;;8.80;3.63;;;6.50;80.10;;;;;;5013796;28;20037;-85
2021/04/17 05:18:07;;;;;;;9.10;4.30;;;6.40;80.30;;;;;;5012898;28;20477;-86
2021/04/17 05:20:33;;;;;;;12.03;4.33;;;6.50;80.30;;;;;;5012051;28;20025;-86
2021/04/17 05:22:59;;;;;;;13.03;4.00;;;6.40;80.70;;;;;;5011519;28;20091;-86
2021/04/17 05:25:24;;;;;;;9.37;4.00;;;6.60;80.20;;;;;;5011362;28;20029;-87
2021/04/17 05:27:50;;;;;;;8.10;3.63;;;6.60;79.70;;;;;;5012978;28;20044;-85
2021/04/17 05:30:16;;;;;;;8.77;4.13;;;6.60;80.10;;;;;;5011407;28;20036;-86
2021/04/17 05:32:42;;;;;;;11.17;4.67;;;6.50;79.70;;;;;;5014126;28;20030;-87
2021/04/17 05:35:08;;;;;;;15.20;4.07;;;6.60;79.80;;;;;;5012643;28;20076;-84
2021/04/17 05:37:34;;;;;;;8.53;4.03;;;6.60;79.50;;;;;;5013837;28;20038;-86
2021/04/17 05:40:00;;;;;;;8.57;4.23;;;6.50;87.50;;;;;;5011967;28;20122;-86
2021/04/17 05:42:25;;;;;;;8.97;4.43;;;6.40;84.70;;;;;;5014032;28;20448;-86
2021/04/17 05:44:51;;;;;;;8.67;3.87;;;6.50;83.70;;;;;;5012524;28;20037;-85
2021/04/17 05:47:17;;;;;;;11.93;4.20;;;6.50;81.90;;;;;;5012812;28;20030;-86
2021/04/17 05:49:42;;;;;;;11.33;4.50;;;6.60;80.50;;;;;;5011834;28;20030;-86
2021/04/17 05:52:08;;;;;;;13.63;5.10;;;6.60;79.90;;;;;;5012182;28;20156;-86
2021/04/17 05:54:34;;;;;;;13.70;5.23;;;6.70;79.90;;;;;;5011553;28;20051;-86
2021/04/17 05:56:59;;;;;;;8.60;4.50;;;6.70;79.90;;;;;;5012169;28;20030;-86
2021/04/17 05:59:25;;;;;;;17.67;4.50;;;6.60;80.30;;;;;;5011958;28;20030;-86
2021/04/17 06:01:50;;;;;;;8.43;4.20;;;6.70;80.30;;;;;;5013524;28;20030;-85
2021/04/17 06:04:16;;;;;;;7.90;4.30;;;6.80;79.90;;;;;;5012180;28;20073;-86
2021/04/17 06:06:42;;;;;;;9.10;3.70;;;6.80;79.60;;;;;;5022778;28;20076;-86
2021/04/17 06:09:07;;;;;;;11.77;4.93;;;6.90;79.60;;;;;;5032630;28;20505;-87
2021/04/17 06:11:34;;;;;;;10.27;4.40;;;6.80;79.60;;;;;;5030978;28;20061;-85
2021/04/17 06:14:24;;;;;;;10.93;4.50;;;6.80;79.60;;;;;;5032888;28;20029;-90
2021/04/17 06:16:50;;;;;;;14.00;5.47;;;6.80;81.50;;;;;;5018218;28;20121;-85
2021/04/17 06:19:15;;;;;;;12.43;5.40;;;6.80;79.80;;;;;;5032276;28;20120;-86
2021/04/17 06:21:41;;;;;;;15.27;6.53;;;6.80;79.90;;;;;;5033551;28;20025;-85
2021/04/17 06:24:07;;;;;;;12.37;5.23;;;6.70;79.80;;;;;;5033311;28;20038;-85
2021/04/17 06:26:33;;;;;;;15.43;6.43;;;6.80;80.00;;;;;;5032319;28;20029;-85
2021/04/17 06:28:59;;;;;;;16.97;6.70;;;6.90;80.00;;;;;;5033396;28;20029;-86
2021/04/17 06:31:24;;;;;;;11.83;5.43;;;6.90;79.90;;;;;;5031965;28;20080;-86
2021/04/17 06:33:51;;;;;;;13.13;5.67;;;6.90;79.60;;;;;;5034394;28;20035;-87
2021/04/17 06:36:17;;;;;;;12.60;5.47;;;6.90;79.60;;;;;;5030766;28;20061;-87
2021/04/17 06:38:42;;;;;;;9.83;5.23;;;6.90;79.60;;;;;;5020893;28;20109;-84
2021/04/17 06:41:09;;;;;;;9.67;4.83;;;6.90;79.80;;;;;;5015082;28;20030;-87
2021/04/17 06:43:36;;;;;;;13.20;5.33;;;6.90;79.80;;;;;;5020152;28;20517;-86
2021/04/17 06:46:03;;;;;;;11.07;4.90;;;6.90;79.70;;;;;;5015995;28;20113;-87
2021/04/17 06:48:32;;;;;;;9.37;4.40;;;6.90;81.40;;;;;;5012086;28;20052;-86
2021/04/17 06:51:00;;;;;;;12.02;4.85;;;6.90;80.00;;;;;;5010799;28;20041;-85
2021/04/17 06:53:27;;;;;;;9.33;5.10;;;6.80;80.20;;;;;;4997277;28;20064;-85
2021/04/17 06:55:55;;;;;;;14.73;5.23;;;6.80;80.20;;;;;;5011294;28;20132;-85
2021/04/17 06:58:21;;;;;;;8.63;4.43;;;6.90;80.30;;;;;;5011738;28;20381;-85
2021/04/17 07:00:59;;;;;;;13.73;5.07;;;7.00;80.20;;;;;;5011185;28;20044;-87
2021/04/17 07:03:25;;;;;;;8.20;4.10;;;6.90;79.70;;;;;;5013765;28;20068;-86
2021/04/17 07:05:50;;;;;;;10.90;4.70;;;7.00;79.90;;;;;;5013174;28;20061;-85
2021/04/17 07:08:32;;;;;;;8.33;4.53;;;7.10;79.70;;;;;;5013246;28;20061;-86
2021/04/17 07:11:03;;;;;;;8.50;4.47;;;7.20;79.40;;;;;;5011136;28;20557;-88
2021/04/17 07:13:29;;;;;;;10.03;4.17;;;7.20;79.00;;;;;;5012297;28;20030;-86
2021/04/17 07:16:06;;;;;;;11.27;4.77;;;7.30;78.80;;;;;;5014577;28;20061;-84
2021/04/17 07:18:33;;;;;;;10.77;5.13;;;7.20;78.90;;;;;;5016724;28;20036;-85
2021/04/17 07:21:14;;;;;;;11.70;5.20;;;7.30;78.40;;;;;;5012211;28;20106;-85
2021/04/17 07:23:45;;;;;;;11.20;4.33;;;7.30;78.60;;;;;;5003671;28;20482;-86
2021/04/17 07:26:12;;;;;;;10.07;4.50;;;7.40;78.20;;;;;;5001552;28;20030;-87
2021/04/17 07:28:39;;;;;;;10.20;4.77;;;7.40;78.20;;;;;;5012191;28;20100;-85
2021/04/17 07:31:06;;;;;;;13.40;5.00;;;7.50;79.00;;;;;;5011479;28;20029;-87
2021/04/17 07:33:32;;;;;;;10.80;4.63;;;7.50;79.70;;;;;;5013728;28;20026;-82
2021/04/17 07:36:00;;;;;;;12.20;4.67;;;7.60;78.50;;;;;;5013240;28;20348;-83
2021/04/17 07:38:33;;;;;;;14.57;5.43;;;7.50;78.40;;;;;;5013188;28;20352;-84
2021/04/17 07:41:29;;;;;;;9.83;5.30;;;7.50;78.50;;;;;;5009244;28;20033;-83
2021/04/17 07:44:00;;;;;;;12.17;5.23;;;7.50;77.90;;;;;;5001933;28;20648;-83
2021/04/17 07:46:41;;;;;;;9.17;4.67;;;7.50;78.30;;;;;;5011814;28;20041;-84
2021/04/17 07:49:18;;;;;;;9.40;4.63;;;7.50;78.30;;;;;;5011826;28;20077;-84
2021/04/17 07:52:00;;;;;;;12.63;4.63;;;7.60;77.80;;;;;;5012076;28;20034;-84
2021/04/17 07:54:26;;;;;;;8.73;4.53;;;7.70;77.70;;;;;;5012734;28;20033;-83
2021/04/17 07:56:52;;;;;;;9.63;4.60;;;7.70;77.40;;;;;;5011056;28;20037;-83
2021/04/17 07:59:24;;;;;;;9.90;4.30;;;7.70;77.50;;;;;;5012874;28;20026;-84
2021/04/17 08:01:52;;;;;;;13.27;4.27;;;7.80;78.10;;;;;;5011979;28;20081;-85
2021/04/17 08:04:26;;;;;;;12.20;4.43;;;7.80;77.50;;;;;;5014284;28;20034;-83
2021/04/17 08:06:54;;;;;;;9.17;4.00;;;7.70;78.00;;;;;;5012453;28;20477;-84
2021/04/17 08:09:21;;;;;;;10.67;4.73;;;7.80;78.30;;;;;;5011513;28;20568;-83
2021/04/17 08:11:50;;;;;;;8.20;3.90;;;7.90;77.70;;;;;;5010911;28;20080;-83
2021/04/17 08:14:18;;;;;;;9.35;4.15;;;8.00;77.40;;;;;;5013011;28;20030;-84
2021/04/17 08:16:44;;;;;;;11.00;4.50;;;8.00;76.70;;;;;;5012473;28;20037;-83
2021/04/17 08:19:10;;;;;;;9.33;4.07;;;8.10;76.60;;;;;;5012185;28;20112;-84
2021/04/17 08:21:39;;;;;;;9.03;4.00;;;8.20;76.40;;;;;;5012982;28;20022;-84
2021/04/17 08:24:06;;;;;;;9.68;4.22;;;8.20;76.60;;;;;;5012109;28;20079;-84
2021/04/17 08:26:33;;;;;;;8.40;3.57;;;8.20;75.70;;;;;;5013512;28;20049;-84
2021/04/17 08:29:01;;;;;;;8.40;4.17;;;8.20;75.10;;;;;;5012294;28;20050;-84
2021/04/17 08:31:37;;;;;;;7.33;3.77;;;8.30;74.30;;;;;;5011435;28;20056;-84
2021/04/17 08:34:18;;;;;;;10.23;4.30;;;8.30;74.50;;;;;;5011521;28;20029;-84
2021/04/17 08:37:03;;;;;;;8.23;3.70;;;8.40;75.10;;;;;;4992486;28;20045;-84
2021/04/17 08:39:34;;;;;;;9.80;3.83;;;8.40;74.80;;;;;;4991420;28;20070;-83
2021/04/17 08:42:01;;;;;;;7.53;3.27;;;8.50;74.30;;;;;;4991861;28;20081;-83
2021/04/17 08:44:28;;;;;;;9.03;3.90;;;8.60;74.00;;;;;;4993453;28;20030;-84
2021/04/17 08:46:55;;;;;;;7.07;3.40;;;8.60;72.70;;;;;;4993822;28;20396;-83
2021/04/17 08:49:23;;;;;;;7.83;3.67;;;8.60;71.90;;;;;;4993241;28;20022;-84
2021/04/17 08:51:49;;;;;;;9.67;3.73;;;8.60;72.30;;;;;;4993785;28;20041;-84
2021/04/17 08:54:17;;;;;;;8.43;3.67;;;8.70;72.40;;;;;;4991894;28;20451;-84
2021/04/17 08:56:48;;;;;;;7.47;3.10;;;8.70;72.20;;;;;;4992771;28;20041;-83
2021/04/17 08:59:19;;;;;;;9.07;3.50;;;8.70;72.20;;;;;;4992342;28;20033;-83
2021/04/17 09:01:45;;;;;;;10.67;4.00;;;8.70;71.90;;;;;;4993768;28;20026;-84
2021/04/17 09:04:12;;;;;;;10.43;3.43;;;8.80;71.70;;;;;;4991546;28;20479;-84
2021/04/17 09:06:39;;;;;;;10.77;3.47;;;8.90;71.50;;;;;;4992363;28;20031;-83
2021/04/17 09:09:20;;;;;;;8.93;3.50;;;8.90;71.50;;;;;;4992181;28;20038;-83
2021/04/17 09:11:54;;;;;;;7.20;3.73;;;9.00;70.60;;;;;;4990515;28;20045;-84
2021/04/17 09:14:26;;;;;;;8.50;3.30;;;9.10;70.30;;;;;;4992061;28;20446;-83
2021/04/17 09:16:53;;;;;;;10.10;3.23;;;9.10;71.00;;;;;;4993395;28;20056;-83
2021/04/17 09:19:37;;;;;;;11.30;3.57;;;9.20;70.70;;;;;;4990809;28;20367;-84
2021/04/17 09:22:23;;;;;;;9.57;2.97;;;9.30;70.50;;;;;;4992779;28;20434;-83
2021/04/17 09:24:50;;;;;;;9.97;3.27;;;9.30;70.20;;;;;;4989177;28;20042;-82
2021/04/17 09:27:25;;;;;;;6.70;3.40;;;9.30;69.40;;;;;;4992881;28;20153;-84
2021/04/17 09:30:07;;;;;;;6.87;3.20;;;9.30;69.30;;;;;;4993628;28;20034;-83
2021/04/17 09:32:43;;;;;;;6.00;2.80;;;9.40;68.90;;;;;;5006186;28;20035;-83
2021/04/17 09:35:16;;;;;;;9.27;3.23;;;9.40;70.10;;;;;;4996335;28;20030;-83
2021/04/17 09:37:48;;;;;;;7.73;2.80;;;9.40;69.70;;;;;;4995484;28;20034;-82
2021/04/17 09:40:14;;;;;;;5.57;2.90;;;9.40;66.80;;;;;;4992647;28;20122;-82
2021/04/17 09:42:41;;;;;;;6.90;2.60;;;9.50;65.70;;;;;;5001049;28;20474;-82
2021/04/17 09:45:11;;;;;;;5.47;2.73;;;9.50;66.40;;;;;;5014842;28;20025;-82
2021/04/17 09:47:57;;;;;;;10.70;3.67;;;9.60;66.40;;;;;;5014716;28;20433;-83
2021/04/17 09:50:24;;;;;;;8.90;3.60;;;9.70;66.60;;;;;;5013026;28;20037;-82
2021/04/17 09:52:51;;;;;;;7.50;3.30;;;9.80;65.10;;;;;;5013141;28;20129;-83
2021/04/17 09:55:17;;;;;;;7.73;3.37;;;9.90;64.40;;;;;;5012353;28;20045;-82
2021/04/17 09:57:48;;;;;;;13.03;3.87;;;9.90;65.00;;;;;;5014696;28;20386;-83
2021/04/17 10:00:15;;;;;;;6.93;3.17;;;10.00;63.20;;;;;;5012885;28;20087;-82
2021/04/17 10:02:47;;;;;;;9.73;4.00;;;10.00;62.30;;;;;;5013508;28;20026;-82
2021/04/17 10:05:14;;;;;;;7.27;2.90;;;10.00;63.20;;;;;;5014014;28;20029;-84
2021/04/17 10:07:50;;;;;;;9.67;3.17;;;10.00;63.40;;;;;;5014053;28;20394;-84
2021/04/17 10:10:16;;;;;;;9.27;3.07;;;10.10;63.20;;;;;;5011995;28;20034;-84
2021/04/17 10:12:53;;;;;;;12.97;5.37;;;10.10;64.00;;;;;;5013028;28;20032;-82
2021/04/17 10:15:27;;;;;;;8.57;4.43;;;10.10;64.70;;;;;;5011906;28;20029;-82
2021/04/17 10:17:58;;;;;;;7.23;3.20;;;10.10;64.30;;;;;;5013231;28;20212;-83
2021/04/17 10:20:24;;;;;;;9.83;3.40;;;10.20;64.80;;;;;;5012083;28;20070;-82
2021/04/17 10:22:58;;;;;;;7.57;3.40;;;10.30;64.10;;;;;;5011602;28;20496;-83
2021/04/17 10:25:39;;;;;;;9.87;3.77;;;10.30;64.00;;;;;;5013732;28;20041;-83
2021/04/17 10:28:22;;;;;;;7.30;3.17;;;10.30;64.30;;;;;;5018133;28;20091;-82
2021/04/17 10:30:51;;;;;;;4.97;2.60;;;10.30;64.30;;;;;;5012148;28;20382;-83
2021/04/17 10:33:26;;;;;;;7.68;2.78;;;10.30;63.80;;;;;;5012790;28;20030;-82
2021/04/17 10:35:53;;;;;;;7.23;3.00;;;10.40;63.50;;;;;;5013426;28;20030;-83
2021/04/17 10:38:23;;;;;;;8.20;3.33;;;10.40;63.80;;;;;;5011142;28;20509;-83
2021/04/17 10:40:49;;;;;;;10.47;4.13;;;10.40;62.50;;;;;;5011120;28;20034;-83
2021/04/17 10:43:19;;;;;;;10.80;3.60;;;10.40;62.40;;;;;;5011186;28;20022;-83
2021/04/17 10:45:46;;;;;;;7.27;2.80;;;10.40;62.30;;;;;;5012360;28;20030;-83
2021/04/17 10:48:16;;;;;;;7.63;2.63;;;10.40;60.80;;;;;;5010895;28;20021;-83
2021/04/17 10:51:02;;;;;;;7.88;2.67;;;10.40;61.20;;;;;;5011967;28;20029;-83
2021/04/17 10:53:39;;;;;;;8.13;2.77;;;10.50;60.50;;;;;;5012731;28;20018;-83
2021/04/17 10:56:15;;;;;;;8.97;3.13;;;10.50;60.30;;;;;;5010887;28;20052;-84
2021/04/17 10:58:43;;;;;;;5.90;2.83;;;10.60;61.40;;;;;;5012411;28;20084;-83
2021/04/17 11:01:15;;;;;;;9.70;3.20;;;10.60;58.90;;;;;;5012277;28;20057;-84
2021/04/17 11:03:43;;;;;;;7.00;3.40;;;10.60;59.50;;;;;;5013080;28;20189;-83
2021/04/17 11:06:16;;;;;;;7.37;3.17;;;10.60;59.80;;;;;;5012343;28;20030;-83
2021/04/17 11:08:43;;;;;;;7.47;3.30;;;10.60;59.60;;;;;;5011394;28;20036;-84
2021/04/17 11:11:15;;;;;;;8.73;3.30;;;10.60;60.10;;;;;;5011140;28;20088;-83
2021/04/17 11:13:43;;;;;;;8.07;3.80;;;10.60;60.70;;;;;;5010668;28;20025;-83
2021/04/17 11:16:11;;;;;;;7.90;3.13;;;10.70;60.70;;;;;;5007637;28;20030;-83
2021/04/17 11:18:43;;;;;;;5.90;3.00;;;10.70;61.30;;;;;;5012308;28;20036;-83
2021/04/17 11:21:11;;;;;;;6.63;2.90;;;10.70;62.10;;;;;;5009604;28;20072;-83
2021/04/17 11:23:47;;;;;;;9.73;3.13;;;10.70;61.80;;;;;;5011486;28;20109;-83
2021/04/17 11:26:16;;;;;;;5.97;3.37;;;10.70;62.20;;;;;;5010108;28;20018;-83
2021/04/17 11:28:45;;;;;;;9.07;4.00;;;10.70;62.10;;;;;;5011891;28;20359;-83
2021/04/17 11:31:14;;;;;;;7.53;3.10;;;10.80;62.30;;;;;;5009622;28;20092;-83
2021/04/17 11:33:40;;;;;;;;;;;10.80;62.60;;;;;;5012228;28;20117;-83
2021/04/17 11:36:06;;;;;;;8.33;3.07;;;10.80;62.30;;;;;;5011512;28;19956;-84
2021/04/17 11:38:32;;;;;;;13.73;5.90;;;10.80;61.00;;;;;;5011652;28;20386;-83
2021/04/17 11:40:58;;;;;;;7.97;3.93;;;10.90;62.20;;;;;;5010665;28;20128;-83
2021/04/17 11:43:23;;;;;;;9.43;3.90;;;11.00;62.80;;;;;;5012773;28;20022;-83
2021/04/17 11:45:49;;;;;;;6.50;3.30;;;11.00;62.40;;;;;;5010034;28;20483;-84
2021/04/17 11:48:16;;;;;;;9.53;4.17;;;11.00;61.50;;;;;;5010205;28;20045;-83
2021/04/17 11:50:42;;;;;;;8.40;3.37;;;11.00;62.00;;;;;;5009814;28;20022;-84
2021/04/17 11:53:08;;;;;;;10.33;3.40;;;11.00;61.70;;;;;;5010883;28;20398;-83
2021/04/17 11:55:34;;;;;;;9.17;3.63;;;11.10;60.00;;;;;;5009753;28;20041;-83
2021/04/17 11:58:00;;;;;;;8.27;3.70;;;11.00;59.70;;;;;;5011484;28;20053;-82
2021/04/17 12:00:25;;;;;;;6.60;3.03;;;11.00;60.30;;;;;;5008955;28;20112;-84
2021/04/17 12:02:51;;;;;;;11.60;3.60;;;11.10;59.90;;;;;;5011324;28;20080;-83
2021/04/17 12:05:17;;;;;;;7.00;2.70;;;11.10;57.60;;;;;;5010990;28;20030;-83
2021/04/17 12:07:42;;;;;;;7.07;2.70;;;11.10;57.50;;;;;;5009806;28;20036;-83
2021/04/17 12:10:09;;;;;;;9.87;3.23;;;11.10;57.60;;;;;;5009509;28;20133;-83
2021/04/17 12:12:35;;;;;;;8.77;3.13;;;11.10;57.90;;;;;;5011010;28;20362;-84
2021/04/17 12:15:01;;;;;;;7.60;3.17;;;11.20;59.00;;;;;;5010724;28;20108;-83
2021/04/17 12:17:26;;;;;;;5.63;2.90;;;11.10;58.40;;;;;;5011136;28;20474;-83
2021/04/17 12:19:52;;;;;;;10.73;3.53;;;11.20;58.60;;;;;;5008917;28;20022;-82
2021/04/17 12:22:18;;;;;;;9.43;3.10;;;11.20;57.90;;;;;;5011103;28;20026;-83
2021/04/17 12:24:44;;;;;;;6.37;2.70;;;11.20;57.90;;;;;;5009727;28;20091;-83
2021/04/17 12:27:09;;;;;;;10.50;3.20;;;11.20;57.30;;;;;;5010636;28;20072;-84
2021/04/17 12:29:35;;;;;;;7.23;2.60;;;11.20;57.10;;;;;;5010242;28;20379;-84
2021/04/17 12:32:01;;;;;;;8.13;2.70;;;11.20;56.90;;;;;;5010390;28;20032;-83
2021/04/17 12:34:26;;;;;;;7.23;2.77;;;11.20;56.50;;;;;;5011278;28;20085;-84
2021/04/17 12:36:52;;;;;;;5.50;2.20;;;11.30;55.00;;;;;;5009348;28;20025;-83
2021/04/17 12:39:17;;;;;;;7.07;2.50;;;11.20;51.90;;;;;;5009004;28;20113;-83
2021/04/17 12:41:43;;;;;;;4.00;2.27;;;11.20;51.50;;;;;;5009291;28;20096;-83
2021/04/17 12:44:10;;;;;;;5.47;2.20;;;11.30;50.80;;;;;;5010995;28;20042;-83
2021/04/17 12:46:43;;;;;;;6.23;2.33;;;11.40;51.10;;;;;;5009207;28;20019;-83
2021/04/17 12:49:09;;;;;;;5.77;1.90;;;11.40;51.80;;;;;;5008688;28;20104;-83
2021/04/17 12:51:34;;;;;;;5.97;2.50;;;11.40;51.50;;;;;;5010437;28;20110;-83
2021/04/17 12:54:00;;;;;;;7.03;2.70;;;11.50;51.00;;;;;;5010843;28;20455;-82
2021/04/17 12:56:26;;;;;;;7.33;2.70;;;11.50;51.30;;;;;;5008939;28;20092;-83
2021/04/17 12:58:52;;;;;;;3.87;2.00;;;11.50;51.20;;;;;;5009080;28;20022;-83